sensor_id;sensor_type;location;lat;lon;timestamp;P1;durP1;ratioP1;P2;durP2;ratioP2
20101;SDS011;10210;52.284;9.892;2023-04-30T00:00:56;10.37;;;3.10;;
20101;SDS011;10210;52.284;9.892;2023-04-30T00:03:22;10.10;;;3.10;;
20101;SDS011;10210;52.284;9.892;2023-04-30T00:05:51;9.27;;;3.23;;
20101;SDS011;10210;52.284;9.892;2023-04-30T00:08:16;10.33;;;3.17;;
20101;SDS011;10210;52.284;9.892;2023-04-30T00:10:42;11.77;;;3.57;;
20101;SDS011;10210;52.284;9.892;2023-04-30T00:13:08;8.00;;;3.03;;
20101;SDS011;10210;52.284;9.892;2023-04-30T00:15:34;9.30;;;3.03;;
20101;SDS011;10210;52.284;9.892;2023-04-30T00:18:00;9.77;;;3.20;;
20101;SDS011;10210;52.284;9.892;2023-04-30T00:20:26;10.03;;;3.50;;
20101;SDS011;10210;52.284;9.892;2023-04-30T00:22:52;10.80;;;3.43;;
20101;SDS011;10210;52.284;9.892;2023-04-30T00:25:18;11.20;;;3.30;;
20101;SDS011;10210;52.284;9.892;2023-04-30T00:27:45;13.20;;;3.80;;
20101;SDS011;10210;52.284;9.892;2023-04-30T00:30:10;11.93;;;3.50;;
20101;SDS011;10210;52.284;9.892;2023-04-30T00:32:37;10.83;;;3.30;;
20101;SDS011;10210;52.284;9.892;2023-04-30T00:35:02;10.57;;;3.13;;
20101;SDS011;10210;52.284;9.892;2023-04-30T00:37:28;10.63;;;3.87;;
20101;SDS011;10210;52.284;9.892;2023-04-30T00:39:54;10.97;;;3.13;;
20101;SDS011;10210;52.284;9.892;2023-04-30T00:42:20;10.90;;;3.57;;
20101;SDS011;10210;52.284;9.892;2023-04-30T00:44:46;12.13;;;3.67;;
20101;SDS011;10210;52.284;9.892;2023-04-30T00:47:11;9.03;;;3.10;;
20101;SDS011;10210;52.284;9.892;2023-04-30T00:49:37;11.57;;;3.40;;
20101;SDS011;10210;52.284;9.892;2023-04-30T00:52:03;13.20;;;3.57;;
20101;SDS011;10210;52.284;9.892;2023-04-30T00:54:29;12.13;;;3.43;;
20101;SDS011;10210;52.284;9.892;2023-04-30T00:56:54;11.33;;;3.20;;
20101;SDS011;10210;52.284;9.892;2023-04-30T00:59:20;11.20;;;3.17;;
20101;SDS011;10210;52.284;9.892;2023-04-30T01:01:46;12.77;;;3.80;;
20101;SDS011;10210;52.284;9.892;2023-04-30T01:04:12;10.63;;;3.60;;
20101;SDS011;10210;52.284;9.892;2023-04-30T01:06:38;12.73;;;3.80;;
20101;SDS011;10210;52.284;9.892;2023-04-30T01:09:04;10.30;;;3.50;;
20101;SDS011;10210;52.284;9.892;2023-04-30T01:14:23;9.23;;;3.60;;
20101;SDS011;10210;52.284;9.892;2023-04-30T01:19:54;14.10;;;3.70;;
20101;SDS011;10210;52.284;9.892;2023-04-30T01:28:04;9.13;;;3.33;;
20101;SDS011;10210;52.284;9.892;2023-04-30T01:30:37;11.40;;;3.60;;
20101;SDS011;10210;52.284;9.892;2023-04-30T01:33:05;9.97;;;3.50;;
20101;SDS011;10210;52.284;9.892;2023-04-30T01:41:19;10.80;;;3.87;;
20101;SDS011;10210;52.284;9.892;2023-04-30T01:43:54;13.57;;;3.83;;
20101;SDS011;10210;52.284;9.892;2023-04-30T01:47:00;13.87;;;4.00;;
20101;SDS011;10210;52.284;9.892;2023-04-30T01:58:02;11.97;;;4.03;;
20101;SDS011;10210;52.284;9.892;2023-04-30T02:00:31;13.13;;;4.03;;
20101;SDS011;10210;52.284;9.892;2023-04-30T02:02:58;11.37;;;4.20;;
20101;SDS011;10210;52.284;9.892;2023-04-30T02:05:24;9.63;;;3.77;;
20101;SDS011;10210;52.284;9.892;2023-04-30T02:07:50;12.30;;;4.50;;
20101;SDS011;10210;52.284;9.892;2023-04-30T02:10:17;11.20;;;3.73;;
20101;SDS011;10210;52.284;9.892;2023-04-30T02:12:46;11.13;;;3.67;;
20101;SDS011;10210;52.284;9.892;2023-04-30T02:15:13;12.70;;;3.60;;
20101;SDS011;10210;52.284;9.892;2023-04-30T02:17:39;11.40;;;4.17;;
20101;SDS011;10210;52.284;9.892;2023-04-30T02:20:05;10.83;;;3.70;;
20101;SDS011;10210;52.284;9.892;2023-04-30T02:22:32;10.97;;;3.60;;
20101;SDS011;10210;52.284;9.892;2023-04-30T02:24:58;11.23;;;3.77;;
20101;SDS011;10210;52.284;9.892;2023-04-30T02:27:23;12.03;;;4.63;;
20101;SDS011;10210;52.284;9.892;2023-04-30T02:29:51;10.47;;;4.27;;
20101;SDS011;10210;52.284;9.892;2023-04-30T02:32:17;9.23;;;3.93;;
20101;SDS011;10210;52.284;9.892;2023-04-30T02:34:44;12.67;;;4.03;;
20101;SDS011;10210;52.284;9.892;2023-04-30T02:37:10;14.53;;;4.27;;
20101;SDS011;10210;52.284;9.892;2023-04-30T02:39:35;10.60;;;3.63;;
20101;SDS011;10210;52.284;9.892;2023-04-30T02:42:01;12.87;;;4.27;;
20101;SDS011;10210;52.284;9.892;2023-04-30T02:44:27;11.97;;;4.33;;
20101;SDS011;10210;52.284;9.892;2023-04-30T02:46:53;11.30;;;4.10;;
20101;SDS011;10210;52.284;9.892;2023-04-30T02:49:19;11.13;;;3.97;;
20101;SDS011;10210;52.284;9.892;2023-04-30T02:51:44;12.73;;;4.20;;
20101;SDS011;10210;52.284;9.892;2023-04-30T02:54:10;12.97;;;4.50;;
20101;SDS011;10210;52.284;9.892;2023-04-30T02:56:36;11.97;;;3.80;;
20101;SDS011;10210;52.284;9.892;2023-04-30T02:59:03;11.37;;;4.27;;
20101;SDS011;10210;52.284;9.892;2023-04-30T03:01:28;14.43;;;4.17;;
20101;SDS011;10210;52.284;9.892;2023-04-30T03:03:54;14.00;;;4.77;;
20101;SDS011;10210;52.284;9.892;2023-04-30T03:06:20;14.47;;;4.90;;
20101;SDS011;10210;52.284;9.892;2023-04-30T03:08:45;11.97;;;4.20;;
20101;SDS011;10210;52.284;9.892;2023-04-30T03:11:12;13.40;;;4.70;;
20101;SDS011;10210;52.284;9.892;2023-04-30T03:13:38;10.63;;;4.10;;
20101;SDS011;10210;52.284;9.892;2023-04-30T03:16:03;10.87;;;4.00;;
20101;SDS011;10210;52.284;9.892;2023-04-30T03:18:29;10.57;;;3.90;;
20101;SDS011;10210;52.284;9.892;2023-04-30T03:20:55;11.97;;;4.40;;
20101;SDS011;10210;52.284;9.892;2023-04-30T03:23:21;10.70;;;4.27;;
20101;SDS011;10210;52.284;9.892;2023-04-30T03:25:47;10.73;;;3.77;;
20101;SDS011;10210;52.284;9.892;2023-04-30T03:28:13;10.37;;;4.37;;
20101;SDS011;10210;52.284;9.892;2023-04-30T03:30:40;14.47;;;4.50;;
20101;SDS011;10210;52.284;9.892;2023-04-30T03:33:06;10.37;;;4.17;;
20101;SDS011;10210;52.284;9.892;2023-04-30T03:35:32;13.60;;;4.43;;
20101;SDS011;10210;52.284;9.892;2023-04-30T03:37:59;11.33;;;4.40;;
20101;SDS011;10210;52.284;9.892;2023-04-30T03:40:25;11.13;;;4.20;;
20101;SDS011;10210;52.284;9.892;2023-04-30T03:42:51;10.57;;;3.90;;
20101;SDS011;10210;52.284;9.892;2023-04-30T03:45:16;8.27;;;3.57;;
20101;SDS011;10210;52.284;9.892;2023-04-30T03:47:42;10.50;;;4.20;;
20101;SDS011;10210;52.284;9.892;2023-04-30T03:50:09;11.67;;;4.00;;
20101;SDS011;10210;52.284;9.892;2023-04-30T03:52:35;11.93;;;4.37;;
20101;SDS011;10210;52.284;9.892;2023-04-30T03:55:04;11.80;;;4.40;;
20101;SDS011;10210;52.284;9.892;2023-04-30T03:57:31;10.80;;;3.83;;
20101;SDS011;10210;52.284;9.892;2023-04-30T03:59:57;11.47;;;4.60;;
20101;SDS011;10210;52.284;9.892;2023-04-30T04:02:23;11.57;;;4.20;;
20101;SDS011;10210;52.284;9.892;2023-04-30T04:04:50;12.00;;;4.43;;
20101;SDS011;10210;52.284;9.892;2023-04-30T04:07:16;10.50;;;4.23;;
20101;SDS011;10210;52.284;9.892;2023-04-30T04:09:41;11.90;;;4.57;;
20101;SDS011;10210;52.284;9.892;2023-04-30T04:12:07;11.23;;;4.63;;
20101;SDS011;10210;52.284;9.892;2023-04-30T04:14:33;12.03;;;4.47;;
20101;SDS011;10210;52.284;9.892;2023-04-30T04:16:59;12.33;;;4.50;;
20101;SDS011;10210;52.284;9.892;2023-04-30T04:19:25;10.70;;;4.30;;
20101;SDS011;10210;52.284;9.892;2023-04-30T04:21:51;11.83;;;4.17;;
20101;SDS011;10210;52.284;9.892;2023-04-30T04:24:17;10.93;;;4.30;;
20101;SDS011;10210;52.284;9.892;2023-04-30T04:26:43;10.07;;;4.30;;
20101;SDS011;10210;52.284;9.892;2023-04-30T04:29:09;13.20;;;4.00;;
20101;SDS011;10210;52.284;9.892;2023-04-30T04:31:36;10.77;;;4.03;;
20101;SDS011;10210;52.284;9.892;2023-04-30T04:34:03;10.67;;;4.23;;
20101;SDS011;10210;52.284;9.892;2023-04-30T04:36:29;11.03;;;4.00;;
20101;SDS011;10210;52.284;9.892;2023-04-30T04:38:57;10.97;;;4.27;;
20101;SDS011;10210;52.284;9.892;2023-04-30T04:41:26;10.93;;;4.23;;
20101;SDS011;10210;52.284;9.892;2023-04-30T04:43:53;9.83;;;4.10;;
20101;SDS011;10210;52.284;9.892;2023-04-30T04:46:19;12.03;;;4.80;;
20101;SDS011;10210;52.284;9.892;2023-04-30T04:48:45;10.87;;;4.40;;
20101;SDS011;10210;52.284;9.892;2023-04-30T04:51:11;12.27;;;4.83;;
20101;SDS011;10210;52.284;9.892;2023-04-30T04:53:36;12.87;;;5.07;;
20101;SDS011;10210;52.284;9.892;2023-04-30T04:56:02;12.93;;;5.33;;
20101;SDS011;10210;52.284;9.892;2023-04-30T04:58:29;12.63;;;4.60;;
20101;SDS011;10210;52.284;9.892;2023-04-30T05:00:55;15.00;;;5.40;;
20101;SDS011;10210;52.284;9.892;2023-04-30T05:03:21;13.37;;;5.30;;
20101;SDS011;10210;52.284;9.892;2023-04-30T05:05:47;11.87;;;4.87;;
20101;SDS011;10210;52.284;9.892;2023-04-30T05:08:13;16.60;;;5.07;;
20101;SDS011;10210;52.284;9.892;2023-04-30T05:10:38;13.37;;;5.10;;
20101;SDS011;10210;52.284;9.892;2023-04-30T05:13:04;13.10;;;5.20;;
20101;SDS011;10210;52.284;9.892;2023-04-30T05:15:30;13.13;;;4.90;;
20101;SDS011;10210;52.284;9.892;2023-04-30T05:17:55;11.57;;;4.97;;
20101;SDS011;10210;52.284;9.892;2023-04-30T05:20:21;10.40;;;4.47;;
20101;SDS011;10210;52.284;9.892;2023-04-30T05:22:47;12.83;;;4.50;;
20101;SDS011;10210;52.284;9.892;2023-04-30T05:25:12;13.53;;;4.93;;
20101;SDS011;10210;52.284;9.892;2023-04-30T05:27:38;14.03;;;5.00;;
20101;SDS011;10210;52.284;9.892;2023-04-30T05:30:03;14.40;;;4.97;;
20101;SDS011;10210;52.284;9.892;2023-04-30T05:32:30;12.13;;;4.90;;
20101;SDS011;10210;52.284;9.892;2023-04-30T05:34:56;14.30;;;5.03;;
20101;SDS011;10210;52.284;9.892;2023-04-30T05:37:21;13.57;;;5.03;;
20101;SDS011;10210;52.284;9.892;2023-04-30T05:39:47;12.07;;;4.70;;
20101;SDS011;10210;52.284;9.892;2023-04-30T05:42:13;13.80;;;4.30;;
20101;SDS011;10210;52.284;9.892;2023-04-30T05:44:39;13.47;;;4.43;;
20101;SDS011;10210;52.284;9.892;2023-04-30T05:47:05;16.47;;;4.40;;
20101;SDS011;10210;52.284;9.892;2023-04-30T05:49:31;13.10;;;4.30;;
20101;SDS011;10210;52.284;9.892;2023-04-30T05:51:56;9.90;;;3.57;;
20101;SDS011;10210;52.284;9.892;2023-04-30T05:54:22;9.43;;;3.50;;
20101;SDS011;10210;52.284;9.892;2023-04-30T05:56:48;8.70;;;3.33;;
20101;SDS011;10210;52.284;9.892;2023-04-30T05:59:13;10.17;;;3.43;;
20101;SDS011;10210;52.284;9.892;2023-04-30T06:01:39;12.20;;;3.50;;
20101;SDS011;10210;52.284;9.892;2023-04-30T06:04:05;15.67;;;4.03;;
20101;SDS011;10210;52.284;9.892;2023-04-30T06:06:33;12.13;;;3.60;;
20101;SDS011;10210;52.284;9.892;2023-04-30T06:08:59;13.93;;;4.00;;
20101;SDS011;10210;52.284;9.892;2023-04-30T06:11:24;12.30;;;3.40;;
20101;SDS011;10210;52.284;9.892;2023-04-30T06:13:50;13.20;;;3.80;;
20101;SDS011;10210;52.284;9.892;2023-04-30T06:16:16;10.00;;;3.60;;
20101;SDS011;10210;52.284;9.892;2023-04-30T06:18:42;10.93;;;3.17;;
20101;SDS011;10210;52.284;9.892;2023-04-30T06:21:08;13.87;;;3.57;;
20101;SDS011;10210;52.284;9.892;2023-04-30T06:23:34;12.00;;;3.37;;
20101;SDS011;10210;52.284;9.892;2023-04-30T06:25:59;10.43;;;3.43;;
20101;SDS011;10210;52.284;9.892;2023-04-30T06:28:25;11.80;;;3.30;;
20101;SDS011;10210;52.284;9.892;2023-04-30T06:30:51;10.37;;;3.43;;
20101;SDS011;10210;52.284;9.892;2023-04-30T06:33:18;12.53;;;3.60;;
20101;SDS011;10210;52.284;9.892;2023-04-30T06:35:45;16.53;;;3.80;;
20101;SDS011;10210;52.284;9.892;2023-04-30T06:38:11;13.03;;;3.80;;
20101;SDS011;10210;52.284;9.892;2023-04-30T06:40:38;11.77;;;3.50;;
20101;SDS011;10210;52.284;9.892;2023-04-30T06:43:03;14.40;;;3.63;;
20101;SDS011;10210;52.284;9.892;2023-04-30T06:45:29;12.20;;;3.43;;
20101;SDS011;10210;52.284;9.892;2023-04-30T06:47:55;11.00;;;3.17;;
20101;SDS011;10210;52.284;9.892;2023-04-30T06:50:21;13.13;;;3.57;;
20101;SDS011;10210;52.284;9.892;2023-04-30T06:52:47;11.27;;;3.13;;
20101;SDS011;10210;52.284;9.892;2023-04-30T06:55:13;11.53;;;3.43;;
20101;SDS011;10210;52.284;9.892;2023-04-30T06:57:38;14.73;;;3.27;;
20101;SDS011;10210;52.284;9.892;2023-04-30T07:00:04;11.97;;;3.70;;
20101;SDS011;10210;52.284;9.892;2023-04-30T07:02:31;13.23;;;3.60;;
20101;SDS011;10210;52.284;9.892;2023-04-30T07:04:57;10.87;;;3.10;;
20101;SDS011;10210;52.284;9.892;2023-04-30T07:07:23;10.87;;;3.30;;
20101;SDS011;10210;52.284;9.892;2023-04-30T07:09:49;14.83;;;3.47;;
20101;SDS011;10210;52.284;9.892;2023-04-30T07:12:16;12.77;;;3.30;;
20101;SDS011;10210;52.284;9.892;2023-04-30T07:14:41;10.87;;;3.30;;
20101;SDS011;10210;52.284;9.892;2023-04-30T07:17:08;14.73;;;3.83;;
20101;SDS011;10210;52.284;9.892;2023-04-30T07:19:34;12.17;;;3.37;;
20101;SDS011;10210;52.284;9.892;2023-04-30T07:21:59;9.20;;;3.00;;
20101;SDS011;10210;52.284;9.892;2023-04-30T07:24:25;11.00;;;2.80;;
20101;SDS011;10210;52.284;9.892;2023-04-30T07:26:51;11.13;;;3.00;;
20101;SDS011;10210;52.284;9.892;2023-04-30T07:29:16;12.40;;;3.50;;
20101;SDS011;10210;52.284;9.892;2023-04-30T07:31:42;10.97;;;2.93;;
20101;SDS011;10210;52.284;9.892;2023-04-30T07:34:08;12.03;;;3.40;;
20101;SDS011;10210;52.284;9.892;2023-04-30T07:36:33;12.90;;;3.37;;
20101;SDS011;10210;52.284;9.892;2023-04-30T07:38:59;13.53;;;3.17;;
20101;SDS011;10210;52.284;9.892;2023-04-30T07:41:25;14.90;;;3.53;;
20101;SDS011;10210;52.284;9.892;2023-04-30T07:43:51;15.00;;;3.30;;
20101;SDS011;10210;52.284;9.892;2023-04-30T07:46:17;13.43;;;3.30;;
20101;SDS011;10210;52.284;9.892;2023-04-30T07:48:43;14.27;;;3.50;;
20101;SDS011;10210;52.284;9.892;2023-04-30T07:51:08;14.23;;;3.20;;
20101;SDS011;10210;52.284;9.892;2023-04-30T07:53:34;10.07;;;3.13;;
20101;SDS011;10210;52.284;9.892;2023-04-30T07:56:00;11.87;;;3.27;;
20101;SDS011;10210;52.284;9.892;2023-04-30T07:58:25;11.23;;;3.13;;
20101;SDS011;10210;52.284;9.892;2023-04-30T08:00:51;11.30;;;3.07;;
20101;SDS011;10210;52.284;9.892;2023-04-30T08:03:17;12.37;;;3.10;;
20101;SDS011;10210;52.284;9.892;2023-04-30T08:05:45;11.67;;;3.20;;
20101;SDS011;10210;52.284;9.892;2023-04-30T08:08:11;9.13;;;3.30;;
20101;SDS011;10210;52.284;9.892;2023-04-30T08:10:37;12.73;;;3.13;;
20101;SDS011;10210;52.284;9.892;2023-04-30T08:13:03;14.67;;;3.37;;
20101;SDS011;10210;52.284;9.892;2023-04-30T08:15:29;9.30;;;3.03;;
20101;SDS011;10210;52.284;9.892;2023-04-30T08:17:57;11.67;;;3.10;;
20101;SDS011;10210;52.284;9.892;2023-04-30T08:20:23;11.33;;;3.10;;
20101;SDS011;10210;52.284;9.892;2023-04-30T08:22:50;12.40;;;3.30;;
20101;SDS011;10210;52.284;9.892;2023-04-30T08:25:15;14.33;;;2.83;;
20101;SDS011;10210;52.284;9.892;2023-04-30T08:27:41;12.73;;;3.23;;
20101;SDS011;10210;52.284;9.892;2023-04-30T08:30:07;11.97;;;2.77;;
20101;SDS011;10210;52.284;9.892;2023-04-30T08:32:33;12.10;;;3.00;;
20101;SDS011;10210;52.284;9.892;2023-04-30T08:35:03;10.63;;;3.37;;
20101;SDS011;10210;52.284;9.892;2023-04-30T08:37:30;11.53;;;2.90;;
20101;SDS011;10210;52.284;9.892;2023-04-30T08:39:56;11.33;;;3.00;;
20101;SDS011;10210;52.284;9.892;2023-04-30T08:42:23;13.03;;;3.33;;
20101;SDS011;10210;52.284;9.892;2023-04-30T08:44:55;10.63;;;2.93;;
20101;SDS011;10210;52.284;9.892;2023-04-30T08:47:22;11.07;;;3.20;;
20101;SDS011;10210;52.284;9.892;2023-04-30T08:49:49;10.70;;;3.07;;
20101;SDS011;10210;52.284;9.892;2023-04-30T08:52:15;9.63;;;2.70;;
20101;SDS011;10210;52.284;9.892;2023-04-30T08:54:43;13.20;;;3.10;;
20101;SDS011;10210;52.284;9.892;2023-04-30T08:57:10;11.10;;;2.87;;
20101;SDS011;10210;52.284;9.892;2023-04-30T08:59:35;11.97;;;2.90;;
20101;SDS011;10210;52.284;9.892;2023-04-30T09:02:01;11.27;;;2.97;;
20101;SDS011;10210;52.284;9.892;2023-04-30T09:04:27;9.83;;;3.00;;
20101;SDS011;10210;52.284;9.892;2023-04-30T09:06:53;9.50;;;2.90;;
20101;SDS011;10210;52.284;9.892;2023-04-30T09:09:28;11.53;;;2.97;;
20101;SDS011;10210;52.284;9.892;2023-04-30T09:12:09;11.13;;;2.80;;
20101;SDS011;10210;52.284;9.892;2023-04-30T09:14:41;10.73;;;3.00;;
20101;SDS011;10210;52.284;9.892;2023-04-30T09:17:27;10.33;;;2.80;;
20101;SDS011;10210;52.284;9.892;2023-04-30T09:19:54;10.87;;;2.83;;
20101;SDS011;10210;52.284;9.892;2023-04-30T09:22:31;10.50;;;2.90;;
20101;SDS011;10210;52.284;9.892;2023-04-30T09:24:57;13.80;;;3.30;;
20101;SDS011;10210;52.284;9.892;2023-04-30T09:27:23;11.53;;;3.20;;
20101;SDS011;10210;52.284;9.892;2023-04-30T09:29:49;9.47;;;2.50;;
20101;SDS011;10210;52.284;9.892;2023-04-30T09:32:14;10.73;;;3.03;;
20101;SDS011;10210;52.284;9.892;2023-04-30T09:34:40;11.17;;;2.60;;
20101;SDS011;10210;52.284;9.892;2023-04-30T09:37:07;12.20;;;3.03;;
20101;SDS011;10210;52.284;9.892;2023-04-30T09:39:38;9.90;;;3.07;;
20101;SDS011;10210;52.284;9.892;2023-04-30T09:42:17;13.67;;;3.20;;
20101;SDS011;10210;52.284;9.892;2023-04-30T09:44:45;8.60;;;2.67;;
20101;SDS011;10210;52.284;9.892;2023-04-30T09:47:12;11.60;;;3.10;;
20101;SDS011;10210;52.284;9.892;2023-04-30T09:49:42;10.17;;;2.83;;
20101;SDS011;10210;52.284;9.892;2023-04-30T09:52:11;9.07;;;2.73;;
20101;SDS011;10210;52.284;9.892;2023-04-30T09:54:40;7.77;;;2.50;;
20101;SDS011;10210;52.284;9.892;2023-04-30T09:57:09;12.33;;;2.97;;
20101;SDS011;10210;52.284;9.892;2023-04-30T09:59:37;9.33;;;3.07;;
20101;SDS011;10210;52.284;9.892;2023-04-30T10:02:10;10.33;;;2.90;;
20101;SDS011;10210;52.284;9.892;2023-04-30T10:04:44;13.70;;;3.20;;
20101;SDS011;10210;52.284;9.892;2023-04-30T10:07:18;10.13;;;2.80;;
20101;SDS011;10210;52.284;9.892;2023-04-30T10:09:56;13.60;;;3.07;;
20101;SDS011;10210;52.284;9.892;2023-04-30T10:12:33;9.53;;;2.77;;
20101;SDS011;10210;52.284;9.892;2023-04-30T10:15:53;13.07;;;3.30;;
20101;SDS011;10210;52.284;9.892;2023-04-30T10:18:04;12.43;;;3.07;;
20101;SDS011;10210;52.284;9.892;2023-04-30T10:20:36;11.20;;;3.10;;
20101;SDS011;10210;52.284;9.892;2023-04-30T10:23:04;11.83;;;3.10;;
20101;SDS011;10210;52.284;9.892;2023-04-30T10:25:31;11.63;;;2.93;;
20101;SDS011;10210;52.284;9.892;2023-04-30T10:27:57;11.50;;;3.03;;
20101;SDS011;10210;52.284;9.892;2023-04-30T10:30:28;12.97;;;3.27;;
20101;SDS011;10210;52.284;9.892;2023-04-30T10:36:21;8.30;;;2.67;;
20101;SDS011;10210;52.284;9.892;2023-04-30T10:38:31;9.90;;;3.07;;
20101;SDS011;10210;52.284;9.892;2023-04-30T10:40:59;10.13;;;3.10;;
20101;SDS011;10210;52.284;9.892;2023-04-30T10:43:26;11.53;;;3.10;;
20101;SDS011;10210;52.284;9.892;2023-04-30T10:45:57;13.13;;;3.00;;
20101;SDS011;10210;52.284;9.892;2023-04-30T10:48:24;10.20;;;2.80;;
20101;SDS011;10210;52.284;9.892;2023-04-30T10:50:51;9.53;;;2.67;;
20101;SDS011;10210;52.284;9.892;2023-04-30T10:53:20;10.67;;;2.80;;
20101;SDS011;10210;52.284;9.892;2023-04-30T10:55:53;8.67;;;2.67;;
20101;SDS011;10210;52.284;9.892;2023-04-30T10:58:34;10.67;;;3.07;;
20101;SDS011;10210;52.284;9.892;2023-04-30T11:01:03;10.53;;;3.00;;
20101;SDS011;10210;52.284;9.892;2023-04-30T11:03:35;12.20;;;3.17;;
20101;SDS011;10210;52.284;9.892;2023-04-30T11:06:12;8.53;;;2.80;;
20101;SDS011;10210;52.284;9.892;2023-04-30T11:08:43;10.00;;;2.87;;
20101;SDS011;10210;52.284;9.892;2023-04-30T11:11:10;10.73;;;2.93;;
20101;SDS011;10210;52.284;9.892;2023-04-30T11:13:58;10.23;;;3.00;;
20101;SDS011;10210;52.284;9.892;2023-04-30T11:16:28;11.93;;;3.50;;
20101;SDS011;10210;52.284;9.892;2023-04-30T11:18:59;10.80;;;3.20;;
20101;SDS011;10210;52.284;9.892;2023-04-30T11:27:42;11.87;;;3.27;;
20101;SDS011;10210;52.284;9.892;2023-04-30T11:30:15;13.63;;;3.33;;
20101;SDS011;10210;52.284;9.892;2023-04-30T11:32:43;11.80;;;3.40;;
20101;SDS011;10210;52.284;9.892;2023-04-30T11:35:12;11.30;;;3.30;;
20101;SDS011;10210;52.284;9.892;2023-04-30T11:37:43;11.53;;;3.63;;
20101;SDS011;10210;52.284;9.892;2023-04-30T11:40:13;11.23;;;3.30;;
20101;SDS011;10210;52.284;9.892;2023-04-30T11:42:40;10.97;;;3.17;;
20101;SDS011;10210;52.284;9.892;2023-04-30T11:45:15;11.47;;;3.20;;
20101;SDS011;10210;52.284;9.892;2023-04-30T11:50:19;9.60;;;3.00;;
20101;SDS011;10210;52.284;9.892;2023-04-30T11:52:53;10.03;;;3.00;;
20101;SDS011;10210;52.284;9.892;2023-04-30T11:55:21;10.33;;;3.27;;
20101;SDS011;10210;52.284;9.892;2023-04-30T11:57:50;10.30;;;3.33;;
20101;SDS011;10210;52.284;9.892;2023-04-30T12:00:20;9.70;;;3.07;;
20101;SDS011;10210;52.284;9.892;2023-04-30T12:02:54;11.03;;;3.20;;
20101;SDS011;10210;52.284;9.892;2023-04-30T12:05:22;10.23;;;2.90;;
20101;SDS011;10210;52.284;9.892;2023-04-30T12:08:01;11.27;;;3.00;;
20101;SDS011;10210;52.284;9.892;2023-04-30T12:10:31;11.63;;;3.33;;
20101;SDS011;10210;52.284;9.892;2023-04-30T12:12:57;9.30;;;2.90;;
20101;SDS011;10210;52.284;9.892;2023-04-30T12:15:24;11.47;;;3.13;;
20101;SDS011;10210;52.284;9.892;2023-04-30T12:17:51;11.50;;;2.70;;
20101;SDS011;10210;52.284;9.892;2023-04-30T12:20:20;10.70;;;3.03;;
20101;SDS011;10210;52.284;9.892;2023-04-30T12:22:48;9.17;;;2.87;;
20101;SDS011;10210;52.284;9.892;2023-04-30T12:25:15;11.40;;;3.20;;
20101;SDS011;10210;52.284;9.892;2023-04-30T12:27:49;11.00;;;2.97;;
20101;SDS011;10210;52.284;9.892;2023-04-30T12:30:23;8.23;;;2.50;;
20101;SDS011;10210;52.284;9.892;2023-04-30T12:32:51;11.97;;;2.87;;
20101;SDS011;10210;52.284;9.892;2023-04-30T12:35:20;10.43;;;2.83;;
20101;SDS011;10210;52.284;9.892;2023-04-30T12:37:49;7.63;;;2.40;;
20101;SDS011;10210;52.284;9.892;2023-04-30T12:40:26;9.13;;;2.60;;
20101;SDS011;10210;52.284;9.892;2023-04-30T12:42:59;12.10;;;3.30;;
20101;SDS011;10210;52.284;9.892;2023-04-30T12:48:15;12.00;;;2.80;;
20101;SDS011;10210;52.284;9.892;2023-04-30T12:50:41;10.43;;;2.83;;
20101;SDS011;10210;52.284;9.892;2023-04-30T12:53:18;11.93;;;3.20;;
20101;SDS011;10210;52.284;9.892;2023-04-30T12:58:40;8.80;;;2.67;;
20101;SDS011;10210;52.284;9.892;2023-04-30T13:01:12;12.17;;;3.23;;
20101;SDS011;10210;52.284;9.892;2023-04-30T13:03:42;10.83;;;2.90;;
20101;SDS011;10210;52.284;9.892;2023-04-30T13:06:07;9.80;;;2.57;;
20101;SDS011;10210;52.284;9.892;2023-04-30T13:08:34;13.67;;;2.90;;
20101;SDS011;10210;52.284;9.892;2023-04-30T13:11:00;6.63;;;2.40;;
20101;SDS011;10210;52.284;9.892;2023-04-30T13:13:26;7.97;;;2.37;;
20101;SDS011;10210;52.284;9.892;2023-04-30T13:15:52;8.33;;;2.70;;
20101;SDS011;10210;52.284;9.892;2023-04-30T13:18:17;8.70;;;2.60;;
20101;SDS011;10210;52.284;9.892;2023-04-30T13:20:43;7.77;;;2.57;;
20101;SDS011;10210;52.284;9.892;2023-04-30T13:23:09;8.13;;;2.53;;
20101;SDS011;10210;52.284;9.892;2023-04-30T13:25:38;9.70;;;2.50;;
20101;SDS011;10210;52.284;9.892;2023-04-30T13:28:05;7.63;;;2.30;;
20101;SDS011;10210;52.284;9.892;2023-04-30T13:30:32;10.30;;;2.73;;
20101;SDS011;10210;52.284;9.892;2023-04-30T13:32:58;8.57;;;2.20;;
20101;SDS011;10210;52.284;9.892;2023-04-30T13:35:24;8.73;;;2.47;;
20101;SDS011;10210;52.284;9.892;2023-04-30T13:37:50;10.53;;;2.23;;
20101;SDS011;10210;52.284;9.892;2023-04-30T13:40:17;5.97;;;2.27;;
20101;SDS011;10210;52.284;9.892;2023-04-30T13:42:45;8.30;;;2.30;;
20101;SDS011;10210;52.284;9.892;2023-04-30T13:45:12;9.43;;;2.43;;
20101;SDS011;10210;52.284;9.892;2023-04-30T13:47:38;9.20;;;2.80;;
20101;SDS011;10210;52.284;9.892;2023-04-30T13:50:04;12.53;;;3.03;;
20101;SDS011;10210;52.284;9.892;2023-04-30T13:52:34;8.33;;;2.37;;
20101;SDS011;10210;52.284;9.892;2023-04-30T13:54:59;13.33;;;3.07;;
20101;SDS011;10210;52.284;9.892;2023-04-30T13:57:26;8.43;;;2.57;;
20101;SDS011;10210;52.284;9.892;2023-04-30T13:59:53;8.93;;;2.80;;
20101;SDS011;10210;52.284;9.892;2023-04-30T14:02:19;9.10;;;2.60;;
20101;SDS011;10210;52.284;9.892;2023-04-30T14:04:45;9.30;;;2.70;;
20101;SDS011;10210;52.284;9.892;2023-04-30T14:07:11;7.93;;;2.50;;
20101;SDS011;10210;52.284;9.892;2023-04-30T14:09:37;12.23;;;2.90;;
20101;SDS011;10210;52.284;9.892;2023-04-30T14:12:03;11.03;;;2.97;;
20101;SDS011;10210;52.284;9.892;2023-04-30T14:14:29;11.60;;;2.90;;
20101;SDS011;10210;52.284;9.892;2023-04-30T14:16:54;8.90;;;2.40;;
20101;SDS011;10210;52.284;9.892;2023-04-30T14:19:20;8.83;;;2.40;;
20101;SDS011;10210;52.284;9.892;2023-04-30T14:21:47;7.77;;;2.30;;
20101;SDS011;10210;52.284;9.892;2023-04-30T14:24:13;6.57;;;2.40;;
20101;SDS011;10210;52.284;9.892;2023-04-30T14:26:40;8.40;;;2.30;;
20101;SDS011;10210;52.284;9.892;2023-04-30T14:29:06;10.23;;;2.77;;
20101;SDS011;10210;52.284;9.892;2023-04-30T14:31:33;9.33;;;2.33;;
20101;SDS011;10210;52.284;9.892;2023-04-30T14:33:58;8.40;;;2.60;;
20101;SDS011;10210;52.284;9.892;2023-04-30T14:36:24;10.30;;;2.50;;
20101;SDS011;10210;52.284;9.892;2023-04-30T14:38:51;8.07;;;2.60;;
20101;SDS011;10210;52.284;9.892;2023-04-30T14:41:17;8.90;;;2.53;;
20101;SDS011;10210;52.284;9.892;2023-04-30T14:43:43;10.90;;;2.83;;
20101;SDS011;10210;52.284;9.892;2023-04-30T14:46:08;10.03;;;2.60;;
20101;SDS011;10210;52.284;9.892;2023-04-30T14:48:35;8.73;;;2.33;;
20101;SDS011;10210;52.284;9.892;2023-04-30T14:51:01;11.30;;;2.70;;
20101;SDS011;10210;52.284;9.892;2023-04-30T14:53:27;9.83;;;2.40;;
20101;SDS011;10210;52.284;9.892;2023-04-30T14:55:53;8.60;;;2.30;;
20101;SDS011;10210;52.284;9.892;2023-04-30T14:58:19;9.53;;;2.63;;
20101;SDS011;10210;52.284;9.892;2023-04-30T15:00:45;10.90;;;2.80;;
20101;SDS011;10210;52.284;9.892;2023-04-30T15:03:12;8.90;;;2.47;;
20101;SDS011;10210;52.284;9.892;2023-04-30T15:05:39;9.63;;;2.53;;
20101;SDS011;10210;52.284;9.892;2023-04-30T15:08:05;8.33;;;2.27;;
20101;SDS011;10210;52.284;9.892;2023-04-30T15:10:31;7.73;;;2.23;;
20101;SDS011;10210;52.284;9.892;2023-04-30T15:12:56;9.80;;;2.80;;
20101;SDS011;10210;52.284;9.892;2023-04-30T15:15:22;8.70;;;2.50;;
20101;SDS011;10210;52.284;9.892;2023-04-30T15:17:52;9.23;;;2.40;;
20101;SDS011;10210;52.284;9.892;2023-04-30T15:20:20;6.93;;;2.47;;
20101;SDS011;10210;52.284;9.892;2023-04-30T15:22:46;11.10;;;2.63;;